createdAt,value
2022-12-06T00:02:24.524Z,96467.44
2022-12-06T00:04:58.835Z,96464.97
2022-12-06T00:07:33.110Z,96461.56
2022-12-06T00:10:07.597Z,96462.94
2022-12-06T00:12:40.708Z,96465.97
2022-12-06T00:15:13.961Z,96453.84
2022-12-06T00:17:47.083Z,96455.88
2022-12-06T00:20:21.517Z,96450.94
2022-12-06T00:22:54.602Z,96448.41
2022-12-06T00:25:27.865Z,96451.22
2022-12-06T00:28:00.868Z,96449.50
2022-12-06T00:30:33.901Z,96456.50
2022-12-06T00:33:07.218Z,96446.03
2022-12-06T00:35:41.650Z,96441.38
2022-12-06T00:38:14.826Z,96444.94
2022-12-06T00:40:47.976Z,96440.28
2022-12-06T00:43:21.053Z,96444.06
2022-12-06T00:45:54.063Z,96443.13
2022-12-06T00:48:27.385Z,96444.22
2022-12-06T00:51:02.198Z,96429.50
2022-12-06T00:53:35.345Z,96430.91
2022-12-06T00:56:08.939Z,96432.31
2022-12-06T00:58:42.766Z,96418.38
2022-12-06T01:01:18.217Z,96418.69
2022-12-06T01:03:53.403Z,96417.16
2022-12-06T01:06:29.985Z,96415.38
2022-12-06T01:09:06.489Z,96419.63
2022-12-06T01:11:39.621Z,96417.31
2022-12-06T01:14:12.438Z,96415.03
2022-12-06T01:16:45.375Z,96412.13
2022-12-06T01:19:18.133Z,96415.91
2022-12-06T01:21:52.445Z,96416.97
2022-12-06T01:24:25.608Z,96418.84
2022-12-06T01:26:58.754Z,96422.34
2022-12-06T01:29:31.930Z,96427.38
2022-12-06T01:32:04.988Z,96427.94
2022-12-06T01:34:37.948Z,96425.06
2022-12-06T01:37:12.178Z,96431.41
2022-12-06T01:39:45.503Z,96422.72
2022-12-06T01:42:18.649Z,96427.50
2022-12-06T01:44:53.374Z,96426.97
2022-12-06T01:47:28.519Z,96424.91
2022-12-06T01:50:05.858Z,96428.88
2022-12-06T01:52:48.732Z,96424.94
2022-12-06T01:55:23.661Z,96431.84
2022-12-06T01:58:01.658Z,96430.53
2022-12-06T02:00:34.738Z,96420.03
2022-12-06T02:03:12.016Z,96412.63
2022-12-06T02:05:45.462Z,96419.50
2022-12-06T02:08:22.043Z,96421.66
2022-12-06T02:10:55.744Z,96414.56
2022-12-06T02:13:29.365Z,96414.56
2022-12-06T02:16:12.734Z,96413.53
2022-12-06T02:18:51.014Z,96416.44
2022-12-06T02:21:35.067Z,96415.94
2022-12-06T02:24:37.285Z,96411.97
2022-12-06T02:27:33.697Z,96406.19
2022-12-06T02:30:12.802Z,96407.25
2022-12-06T02:32:55.237Z,96401.19
2022-12-06T02:35:34.537Z,96397.50
2022-12-06T02:38:13.203Z,96391.44
2022-12-06T02:40:51.018Z,96401.22
2022-12-06T02:43:28.877Z,96394.13
2022-12-06T02:46:04.780Z,96389.91
2022-12-06T02:48:40.603Z,96380.66
2022-12-06T02:51:16.944Z,96386.22
2022-12-06T02:53:54.108Z,96389.66
2022-12-06T02:56:27.554Z,96381.25
2022-12-06T02:59:00.694Z,96386.00
2022-12-06T03:01:36.860Z,96380.72
2022-12-06T03:04:32.779Z,96385.19
2022-12-06T03:07:17.890Z,96379.66
2022-12-06T03:09:59.986Z,96377.03
2022-12-06T03:12:40.755Z,96378.88
2022-12-06T03:15:17.531Z,96369.69
2022-12-06T03:17:55.241Z,96372.84
2022-12-06T03:20:42.558Z,96370.22
2022-12-06T03:23:20.453Z,96374.19
2022-12-06T03:25:56.628Z,96370.75
2022-12-06T03:28:31.195Z,96370.25
2022-12-06T03:31:09.170Z,96369.47
2022-12-06T03:33:48.260Z,96361.81
2022-12-06T03:36:24.906Z,96359.19
2022-12-06T03:39:02.796Z,96361.81
2022-12-06T03:41:42.236Z,96354.44
2022-12-06T03:44:15.439Z,96356.28
2022-12-06T03:46:52.015Z,96363.16
2022-12-06T03:49:32.349Z,96358.13
2022-12-06T03:52:06.972Z,96367.91
2022-12-06T03:54:40.853Z,96355.28
2022-12-06T03:57:14.503Z,96356.06
2022-12-06T03:59:47.317Z,96356.34
2022-12-06T04:02:20.155Z,96359.75
2022-12-06T04:04:53.344Z,96358.72
2022-12-06T04:07:27.628Z,96367.16
2022-12-06T04:10:03.841Z,96368.19
2022-12-06T04:12:54.494Z,96365.84
2022-12-06T04:15:29.433Z,96363.97
2022-12-06T04:18:13.474Z,96369.25
2022-12-06T04:21:08.728Z,96379.03
2022-12-06T04:23:44.995Z,96384.03
2022-12-06T04:26:19.819Z,96383.25
2022-12-06T04:29:11.467Z,96383.22
2022-12-06T04:32:01.631Z,96385.56
2022-12-06T04:34:51.854Z,96383.13
2022-12-06T04:37:42.108Z,96377.81
2022-12-06T04:40:16.810Z,96381.41
2022-12-06T04:43:06.891Z,96378.69
2022-12-06T04:45:39.707Z,96379.91
2022-12-06T04:48:12.956Z,96389.06
2022-12-06T04:50:48.960Z,96376.31
2022-12-06T04:53:21.934Z,96367.47
2022-12-06T04:55:56.270Z,96377.41
2022-12-06T04:58:29.092Z,96365.69
2022-12-06T05:01:02.146Z,96364.81
2022-12-06T05:03:38.346Z,96359.38
2022-12-06T05:06:14.242Z,96360.84
2022-12-06T05:08:47.379Z,96352.56
2022-12-06T05:11:21.581Z,96354.03
2022-12-06T05:13:54.345Z,96357.13
2022-12-06T05:16:27.796Z,96354.63
2022-12-06T05:19:00.717Z,96350.56
2022-12-06T05:21:33.933Z,96351.00
2022-12-06T05:24:07.424Z,96357.81
2022-12-06T05:26:41.626Z,96352.66
2022-12-06T05:29:14.481Z,96346.03
2022-12-06T05:31:47.599Z,96340.38
2022-12-06T05:34:20.936Z,96334.19
2022-12-06T05:36:53.800Z,96347.38
2022-12-06T05:39:26.751Z,96335.41
2022-12-06T05:42:00.872Z,96321.31
2022-12-06T05:44:33.996Z,96323.38
2022-12-06T05:47:06.964Z,96312.22
2022-12-06T05:49:39.843Z,96304.78
2022-12-06T05:52:13.775Z,96311.34
2022-12-06T05:54:46.521Z,96303.88
2022-12-06T05:57:21.217Z,96307.53
2022-12-06T05:59:54.615Z,96305.09
2022-12-06T06:02:27.721Z,96307.44
2022-12-06T06:05:01.208Z,96298.94
2022-12-06T06:07:34.238Z,96302.88
2022-12-06T06:10:08.318Z,96311.28
2022-12-06T06:12:42.832Z,96306.78
2022-12-06T06:15:16.569Z,96306.22
2022-12-06T06:17:49.396Z,96310.16
2022-12-06T06:20:22.427Z,96310.34
2022-12-06T06:22:55.412Z,96317.22
2022-12-06T06:25:28.306Z,96311.91
2022-12-06T06:28:02.485Z,96308.69
2022-12-06T06:30:35.594Z,96306.84
2022-12-06T06:33:08.717Z,96303.41
2022-12-06T06:35:42.726Z,96305.19
2022-12-06T06:38:15.679Z,96306.25
2022-12-06T06:40:48.529Z,96301.97
2022-12-06T06:43:22.886Z,96300.09
2022-12-06T06:45:58.109Z,96303.25
2022-12-06T06:48:33.626Z,96304.50
2022-12-06T06:51:08.501Z,96307.66
2022-12-06T06:53:41.843Z,96302.88
2022-12-06T06:56:14.885Z,96307.09
2022-12-06T06:58:49.140Z,96305.69
2022-12-06T07:01:24.139Z,96303.03
2022-12-06T07:03:57.642Z,96297.00
2022-12-06T07:06:30.743Z,96285.28
2022-12-06T07:09:04.022Z,96296.66
2022-12-06T07:11:36.908Z,96298.25
2022-12-06T07:14:13.221Z,96297.97
2022-12-06T07:16:46.273Z,96314.38
2022-12-06T07:19:19.246Z,96308.28
2022-12-06T07:21:52.342Z,96309.56
2022-12-06T07:24:27.806Z,96304.72
2022-12-06T07:27:00.978Z,96310.53
2022-12-06T07:29:35.338Z,96299.34
2022-12-06T07:32:08.247Z,96306.41
2022-12-06T07:34:41.268Z,96309.28
2022-12-06T07:37:15.256Z,96305.72
2022-12-06T07:39:48.438Z,96306.13
2022-12-06T07:42:38.819Z,96312.13
2022-12-06T07:45:15.476Z,96302.69
2022-12-06T07:47:48.762Z,96312.91
2022-12-06T07:50:23.970Z,96301.28
2022-12-06T07:52:57.038Z,96303.25
2022-12-06T07:55:32.174Z,96305.19
2022-12-06T07:58:05.078Z,96307.94
2022-12-06T08:00:41.495Z,96302.69
2022-12-06T08:03:14.380Z,96305.44
2022-12-06T08:05:54.969Z,96289.56
2022-12-06T08:08:29.084Z,96292.13
2022-12-06T08:11:02.635Z,96301.75
2022-12-06T08:13:37.481Z,96297.88
2022-12-06T08:16:14.019Z,96304.34
2022-12-06T08:18:47.161Z,96306.56
2022-12-06T08:21:20.162Z,96305.84
2022-12-06T08:23:54.301Z,96306.97
2022-12-06T08:26:27.476Z,96310.31
2022-12-06T08:29:01.295Z,96311.16
2022-12-06T08:31:35.683Z,96303.34
2022-12-06T08:34:08.919Z,96314.31
2022-12-06T08:36:42.106Z,96311.84
2022-12-06T08:39:15.025Z,96308.59
2022-12-06T08:41:58.071Z,96306.09
2022-12-06T08:44:32.716Z,96308.44
2022-12-06T08:47:06.965Z,96307.66
2022-12-06T08:49:39.931Z,96307.94
2022-12-06T08:52:13.077Z,96302.47
2022-12-06T08:54:45.941Z,96306.53
2022-12-06T08:57:18.850Z,96314.81
2022-12-06T08:59:51.752Z,96302.44
2022-12-06T09:02:27.046Z,96317.41
2022-12-06T09:05:00.022Z,96319.13
2022-12-06T09:07:33.360Z,96315.97
2022-12-06T09:10:07.558Z,96319.41
2022-12-06T09:12:40.706Z,96325.81
2022-12-06T09:15:13.661Z,96325.03
2022-12-06T09:17:48.081Z,96319.72
2022-12-06T09:20:20.907Z,96322.88
2022-12-06T09:22:54.017Z,96319.13
2022-12-06T09:25:26.950Z,96320.69
2022-12-06T09:28:00.760Z,96306.78
2022-12-06T09:30:33.556Z,96304.13
2022-12-06T09:33:08.890Z,96313.66
2022-12-06T09:35:41.755Z,96305.69
2022-12-06T09:38:15.086Z,96303.81
2022-12-06T09:40:56.841Z,96298.22
2022-12-06T09:43:43.911Z,96302.25
2022-12-06T09:46:32.232Z,96294.28
2022-12-06T09:49:31.600Z,96296.94
2022-12-06T09:52:23.130Z,96289.75
2022-12-06T09:55:19.331Z,96284.72
2022-12-06T09:58:00.856Z,96281.59
2022-12-06T10:00:41.850Z,96282.38
2022-12-06T10:03:41.881Z,96282.38
2022-12-06T10:06:19.406Z,96282.38
2022-12-06T10:09:05.026Z,96283.47
2022-12-06T10:12:10.090Z,96278.94
2022-12-06T10:15:05.534Z,96284.44
2022-12-06T10:17:52.237Z,96279.13
2022-12-06T10:20:36.046Z,96280.69
2022-12-06T10:23:22.382Z,96279.59
2022-12-06T10:26:04.731Z,96272.09
2022-12-06T10:28:46.424Z,96277.44
2022-12-06T10:31:24.807Z,96278.66
2022-12-06T10:33:59.363Z,96275.22
2022-12-06T10:36:43.614Z,96278.84
2022-12-06T10:39:23.036Z,96271.38
2022-12-06T10:42:04.031Z,96273.38
2022-12-06T10:44:42.621Z,96274.38
2022-12-06T10:47:21.070Z,96269.53
2022-12-06T10:49:59.278Z,96262.50
2022-12-06T10:52:41.992Z,96262.66
2022-12-06T10:55:26.098Z,96253.75
2022-12-06T10:58:11.527Z,96255.50
2022-12-06T11:00:54.068Z,96247.84
2022-12-06T11:03:35.062Z,96252.72
2022-12-06T11:06:14.273Z,96250.84
2022-12-06T11:08:52.019Z,96244.13
2022-12-06T11:11:32.842Z,96250.09
2022-12-06T11:14:12.730Z,96256.19
2022-12-06T11:16:51.708Z,96252.94
2022-12-06T11:19:31.759Z,96250.28
2022-12-06T11:22:13.575Z,96247.75
2022-12-06T11:24:54.271Z,96250.91
2022-12-06T11:27:34.800Z,96237.28
2022-12-06T11:30:19.764Z,96250.28
2022-12-06T11:32:53.951Z,96247.63
2022-12-06T11:35:29.634Z,96244.66
2022-12-06T11:38:07.430Z,96239.00
2022-12-06T11:40:44.914Z,96241.38
2022-12-06T11:43:25.341Z,96237.31
2022-12-06T11:45:59.424Z,96238.69
2022-12-06T11:48:35.407Z,96234.94
2022-12-06T11:51:16.771Z,96229.03
2022-12-06T11:54:01.486Z,96227.44
2022-12-06T11:56:38.407Z,96216.81
2022-12-06T11:59:25.206Z,96224.47
2022-12-06T12:02:00.895Z,96221.03
2022-12-06T12:04:43.015Z,96221.81
2022-12-06T12:07:18.455Z,96223.38
2022-12-06T12:09:57.782Z,96218.06
2022-12-06T12:13:07.558Z,96208.50
2022-12-06T12:15:51.252Z,96219.59
2022-12-06T12:18:27.726Z,96208.50
2022-12-06T12:21:02.496Z,96208.50
2022-12-06T12:23:38.695Z,96207.88
2022-12-06T12:26:15.036Z,96199.88
2022-12-06T12:29:06.058Z,96205.22
2022-12-06T12:31:48.601Z,96203.34
2022-12-06T12:34:23.255Z,96199.09
2022-12-06T12:37:00.299Z,96190.03
2022-12-06T12:39:36.181Z,96196.91
2022-12-06T12:42:28.354Z,96203.34
2022-12-06T12:45:04.420Z,96204.13
2022-12-06T12:47:38.777Z,96203.03
2022-12-06T12:50:20.919Z,96204.91
2022-12-06T12:52:54.755Z,96202.09
2022-12-06T12:55:30.401Z,96208.50
2022-12-06T12:58:03.428Z,96198.47
2022-12-06T13:00:39.887Z,96196.91
2022-12-06T13:03:49.662Z,96200.34
2022-12-06T13:06:24.401Z,96199.88
2022-12-06T13:09:01.301Z,96202.53
2022-12-06T13:11:49.106Z,96194.09
2022-12-06T13:14:24.967Z,96187.53
2022-12-06T13:17:01.754Z,96189.09
2022-12-06T13:19:40.581Z,96190.19
2022-12-06T13:22:24.842Z,96183.28
2022-12-06T13:25:02.344Z,96188.91
2022-12-06T13:27:39.027Z,96181.53
2022-12-06T13:30:16.747Z,96185.78
2022-12-06T13:32:53.369Z,96189.06
2022-12-06T13:35:32.608Z,96175.78
2022-12-06T13:38:27.061Z,96171.53
2022-12-06T13:41:01.254Z,96178.25
2022-12-06T13:43:55.837Z,96177.66
2022-12-06T13:46:31.699Z,96177.47
2022-12-06T13:49:24.959Z,96174.03
2022-12-06T13:51:59.766Z,96180.00
2022-12-06T13:54:33.453Z,96173.09
2022-12-06T13:57:24.608Z,96178.88
2022-12-06T13:59:58.450Z,96170.25
2022-12-06T14:02:52.925Z,96165.72
2022-12-06T14:08:43.721Z,96173.50
2022-12-06T14:11:23.692Z,96172.28
2022-12-06T14:14:08.861Z,96167.25
2022-12-06T14:16:46.341Z,96162.53
2022-12-06T14:19:21.550Z,96168.50
2022-12-06T14:21:56.955Z,96174.59
2022-12-06T14:24:35.213Z,96177.56
2022-12-06T14:27:14.591Z,96179.44
2022-12-06T14:30:02.037Z,96168.63
2022-12-06T14:32:37.253Z,96176.13
2022-12-06T14:35:15.879Z,96177.69
2022-12-06T14:37:51.687Z,96172.22
2022-12-06T14:40:45.400Z,96175.50
2022-12-06T14:43:19.634Z,96173.44
2022-12-06T14:45:53.731Z,96171.41
2022-12-06T14:48:27.395Z,96173.91
2022-12-06T14:51:02.077Z,96173.13
2022-12-06T14:53:37.280Z,96174.53
2022-12-06T14:56:23.606Z,96176.41
2022-12-06T14:58:59.600Z,96172.78
2022-12-06T15:01:32.996Z,96177.16
2022-12-06T15:04:09.353Z,96179.03
2022-12-06T15:06:53.216Z,96179.63
2022-12-06T15:09:26.141Z,96184.78
2022-12-06T15:12:37.925Z,96184.31
2022-12-06T15:15:32.360Z,96187.56
2022-12-06T15:18:14.060Z,96187.72
2022-12-06T15:20:47.653Z,96190.50
2022-12-06T15:23:31.592Z,96193.00
2022-12-06T15:26:06.070Z,96196.06
2022-12-06T15:28:41.547Z,96207.00
2022-12-06T15:31:19.109Z,96201.31
2022-12-06T15:33:52.210Z,96191.94
2022-12-06T15:36:29.635Z,96191.28
2022-12-06T15:39:02.552Z,96185.59
2022-12-06T15:41:37.621Z,96197.44
2022-12-06T15:44:15.513Z,96196.47
2022-12-06T15:46:49.564Z,96191.41
2022-12-06T15:49:25.581Z,96204.00
2022-12-06T15:52:00.227Z,96198.94
2022-12-06T15:54:33.157Z,96203.56
2022-12-06T15:57:06.099Z,96208.50
2022-12-06T15:59:40.368Z,96208.16
2022-12-06T16:02:16.081Z,96209.34
2022-12-06T16:04:50.953Z,96200.22
2022-12-06T16:07:24.210Z,96205.13
2022-12-06T16:09:57.522Z,96212.44
2022-12-06T16:12:50.474Z,96211.25
2022-12-06T16:15:25.522Z,96212.47
2022-12-06T16:17:58.903Z,96215.47
2022-12-06T16:20:32.043Z,96214.31
2022-12-06T16:23:49.840Z,96215.22
2022-12-06T16:26:24.366Z,96212.19
2022-12-06T16:28:58.890Z,96215.41
2022-12-06T16:31:38.303Z,96217.56
2022-12-06T16:34:11.854Z,96216.59
2022-12-06T16:36:59.766Z,96221.56
2022-12-06T16:39:35.044Z,96218.13
2022-12-06T16:42:08.060Z,96220.22
2022-12-06T16:44:51.137Z,96220.22
2022-12-06T16:49:57.801Z,96218.72
2022-12-06T16:52:30.742Z,96229.03
2022-12-06T16:55:03.927Z,96223.63
2022-12-06T16:57:37.083Z,96221.47
2022-12-06T17:00:12.334Z,96221.69
2022-12-06T17:02:46.665Z,96221.00
2022-12-06T17:05:22.476Z,96231.97
2022-12-06T17:07:55.664Z,96219.38
2022-12-06T17:10:28.758Z,96222.13
2022-12-06T17:13:02.055Z,96221.75
2022-12-06T17:15:35.058Z,96224.19
2022-12-06T17:18:09.485Z,96219.53
2022-12-06T17:20:42.375Z,96211.16
2022-12-06T17:23:16.636Z,96215.75
2022-12-06T17:25:58.041Z,96227.81
2022-12-06T17:28:31.072Z,96228.50
2022-12-06T17:31:08.399Z,96221.69
2022-12-06T17:33:43.067Z,96217.53
2022-12-06T17:36:17.634Z,96232.25
2022-12-06T17:38:54.346Z,96225.25
2022-12-06T17:41:51.590Z,96230.63
2022-12-06T17:44:25.240Z,96226.25
2022-12-06T17:46:58.302Z,96224.00
2022-12-06T17:49:32.634Z,96226.50
2022-12-06T17:52:06.414Z,96224.81
2022-12-06T17:54:39.601Z,96222.03
2022-12-06T17:57:16.259Z,96224.09
2022-12-06T17:59:49.463Z,96234.28
2022-12-06T18:02:25.824Z,96224.13
2022-12-06T18:05:01.378Z,96225.06
2022-12-06T18:07:35.337Z,96228.72
2022-12-06T18:10:09.320Z,96229.16
2022-12-06T18:12:42.436Z,96225.13
2022-12-06T18:15:29.179Z,96226.41
2022-12-06T18:18:02.399Z,96231.09
2022-12-06T18:20:36.583Z,96233.13
2022-12-06T18:23:10.398Z,96229.69
2022-12-06T18:25:43.921Z,96211.88
2022-12-06T18:28:17.299Z,96214.22
2022-12-06T18:30:50.168Z,96207.81
2022-12-06T18:33:27.891Z,96208.91
2022-12-06T18:36:04.717Z,96221.13
2022-12-06T18:38:37.920Z,96213.44
2022-12-06T18:41:13.425Z,96219.53
2022-12-06T18:43:46.824Z,96221.41
2022-12-06T18:46:21.584Z,96230.47
2022-12-06T18:48:56.860Z,96222.50
2022-12-06T18:51:33.417Z,96227.34
2022-12-06T18:54:07.109Z,96230.31
2022-12-06T18:56:40.238Z,96227.97
2022-12-06T18:59:13.484Z,96234.06
2022-12-06T19:01:46.545Z,96230.91
2022-12-06T19:04:19.552Z,96237.03
2022-12-06T19:06:54.274Z,96240.75
2022-12-06T19:09:27.525Z,96243.72
2022-12-06T19:12:02.780Z,96245.13
2022-12-06T19:14:35.867Z,96241.69
2022-12-06T19:17:11.681Z,96243.88
2022-12-06T19:19:44.572Z,96235.91
2022-12-06T19:22:18.849Z,96229.50
2022-12-06T19:24:51.741Z,96241.22
2022-12-06T19:27:24.668Z,96240.72
2022-12-06T19:29:57.555Z,96239.63
2022-12-06T19:32:30.502Z,96241.03
2022-12-06T19:35:08.380Z,96240.25
2022-12-06T19:37:43.001Z,96244.47
2022-12-06T19:40:16.120Z,96253.81
2022-12-06T19:43:06.447Z,96241.63
2022-12-06T19:45:40.011Z,96249.91
2022-12-06T19:48:12.946Z,96255.53
2022-12-06T19:50:46.037Z,96253.19
2022-12-06T19:53:20.772Z,96246.78
2022-12-06T19:55:53.751Z,96250.34
2022-12-06T19:58:26.679Z,96249.88
2022-12-06T20:00:59.602Z,96247.22
2022-12-06T20:03:32.564Z,96247.03
2022-12-06T20:06:08.057Z,96253.72
2022-12-06T20:08:42.997Z,96258.56
2022-12-06T20:11:37.952Z,96256.22
2022-12-06T20:14:13.316Z,96254.44
2022-12-06T20:16:46.621Z,96252.88
2022-12-06T20:19:20.961Z,96264.28
2022-12-06T20:21:53.941Z,96264.63
2022-12-06T20:24:29.011Z,96266.16
2022-12-06T20:27:03.556Z,96261.19
2022-12-06T20:29:38.642Z,96261.97
2022-12-06T20:32:11.566Z,96262.44
2022-12-06T20:34:44.927Z,96262.13
2022-12-06T20:37:18.218Z,96263.69
2022-12-06T20:39:52.519Z,96259.66
2022-12-06T20:42:26.558Z,96262.03
2022-12-06T20:44:59.623Z,96259.81
2022-12-06T20:47:32.932Z,96258.44
2022-12-06T20:50:08.634Z,96263.16
2022-12-06T20:52:41.792Z,96262.38
2022-12-06T20:55:16.449Z,96254.84
2022-12-06T20:57:49.351Z,96253.78
2022-12-06T21:00:22.803Z,96255.06
2022-12-06T21:02:55.942Z,96249.72
2022-12-06T21:05:29.034Z,96248.66
2022-12-06T21:08:02.011Z,96245.69
2022-12-06T21:10:53.837Z,96255.41
2022-12-06T21:13:30.383Z,96249.78
2022-12-06T21:16:04.610Z,96241.50
2022-12-06T21:18:38.087Z,96246.53
2022-12-06T21:21:12.161Z,96242.78
2022-12-06T21:23:45.064Z,96240.91
2022-12-06T21:26:19.849Z,96244.50
2022-12-06T21:28:54.558Z,96257.00
2022-12-06T21:31:29.027Z,96242.44
2022-12-06T21:34:02.837Z,96244.81
2022-12-06T21:36:35.888Z,96247.94
2022-12-06T21:39:09.813Z,96253.28
2022-12-06T21:41:44.500Z,96245.00
2022-12-06T21:44:17.759Z,96254.84
2022-12-06T21:46:53.115Z,96250.00
2022-12-06T21:49:26.646Z,96255.03
2022-12-06T21:52:04.582Z,96257.34
2022-12-06T21:54:41.885Z,96251.44
2022-12-06T21:57:16.377Z,96261.47
2022-12-06T21:59:49.366Z,96251.63
2022-12-06T22:02:22.604Z,96250.22
2022-12-06T22:04:55.777Z,96245.69
2022-12-06T22:07:29.164Z,96249.13
2022-12-06T22:10:02.362Z,96256.00
2022-12-06T22:12:37.372Z,96251.19
2022-12-06T22:15:11.494Z,96250.41
2022-12-06T22:17:44.560Z,96258.38
2022-12-06T22:20:17.548Z,96256.00
2022-12-06T22:22:52.949Z,96262.13
2022-12-06T22:25:26.928Z,96260.53
2022-12-06T22:28:01.420Z,96259.47
2022-12-06T22:30:34.913Z,96266.66
2022-12-06T22:33:09.015Z,96266.34
2022-12-06T22:35:42.063Z,96268.22
2022-12-06T22:38:15.021Z,96264.47
2022-12-06T22:40:56.975Z,96261.50
2022-12-06T22:43:31.683Z,96268.41
2022-12-06T22:46:06.596Z,96255.88
2022-12-06T22:48:41.208Z,96268.84
2022-12-06T22:51:16.020Z,96261.97
2022-12-06T22:53:54.399Z,96271.50
2022-12-06T22:56:28.957Z,96265.13
2022-12-06T22:59:04.105Z,96260.09
2022-12-06T23:01:40.380Z,96258.72
2022-12-06T23:04:13.597Z,96259.00
2022-12-06T23:06:46.572Z,96262.44
2022-12-06T23:09:19.592Z,96258.72
2022-12-06T23:11:52.554Z,96263.25
2022-12-06T23:14:26.962Z,96261.06
2022-12-06T23:17:00.007Z,96262.16
2022-12-06T23:19:33.094Z,96258.41
2022-12-06T23:22:06.083Z,96257.91
2022-12-06T23:24:39.247Z,96259.50
2022-12-06T23:27:12.194Z,96262.44
2022-12-06T23:29:46.580Z,96260.59
2022-12-06T23:32:20.282Z,96264.03
2022-12-06T23:34:53.372Z,96259.78
2022-12-06T23:37:26.227Z,96254.47
2022-12-06T23:40:00.045Z,96257.44
2022-12-06T23:42:33.372Z,96259.00
2022-12-06T23:45:09.442Z,96259.00
2022-12-06T23:47:42.317Z,96250.53
2022-12-06T23:50:15.533Z,96256.19
2022-12-06T23:52:48.395Z,96251.97
2022-12-06T23:55:21.418Z,96257.28
2022-12-06T23:57:54.284Z,96259.94
